createdAt,value
2022-11-29T00:00:47.403Z,99426.78
2022-11-29T00:03:20.103Z,99422.59
2022-11-29T00:05:47.363Z,99424.31
2022-11-29T00:08:14.445Z,99426.88
2022-11-29T00:10:41.184Z,99422.56
2022-11-29T00:13:08.353Z,99435.53
2022-11-29T00:15:36.886Z,99432.13
2022-11-29T00:18:04.628Z,99428.66
2022-11-29T00:20:31.725Z,99427.84
2022-11-29T00:22:58.824Z,99420.19
2022-11-29T00:25:26.737Z,99432.31
2022-11-29T00:27:53.902Z,99431.56
2022-11-29T00:30:21.163Z,99430.78
2022-11-29T00:32:48.377Z,99420.59
2022-11-29T00:35:15.296Z,99421.53
2022-11-29T00:37:42.396Z,99424.16
2022-11-29T00:40:09.479Z,99424.16
2022-11-29T00:42:36.554Z,99421.53
2022-11-29T00:45:03.649Z,99414.63
2022-11-29T00:47:30.702Z,99418.88
2022-11-29T00:49:57.473Z,99417.16
2022-11-29T00:52:24.548Z,99410.28
2022-11-29T00:54:51.291Z,99407.66
2022-11-29T00:57:18.385Z,99405.16
2022-11-29T00:59:45.130Z,99412.81
2022-11-29T01:02:12.218Z,99411.13
2022-11-29T01:04:39.089Z,99406.00
2022-11-29T01:07:06.216Z,99400.88
2022-11-29T01:09:32.988Z,99398.31
2022-11-29T01:12:00.057Z,99401.81
2022-11-29T01:14:26.867Z,99397.56
2022-11-29T01:16:53.989Z,99399.38
2022-11-29T01:19:20.762Z,99397.81
2022-11-29T01:21:47.820Z,99396.13
2022-11-29T01:24:14.592Z,99400.53
2022-11-29T01:26:41.673Z,99398.00
2022-11-29T01:29:12.912Z,99389.44
2022-11-29T01:31:40.165Z,99397.16
2022-11-29T01:34:07.348Z,99385.13
2022-11-29T01:36:35.361Z,99389.41
2022-11-29T01:39:04.187Z,99395.41
2022-11-29T01:41:34.153Z,99394.53
2022-11-29T01:44:13.054Z,99390.25
2022-11-29T01:46:45.684Z,99384.31
2022-11-29T01:49:18.812Z,99393.94
2022-11-29T01:51:52.368Z,99385.47
2022-11-29T01:54:20.681Z,99393.31
2022-11-29T01:56:50.132Z,99383.13
2022-11-29T01:59:21.968Z,99385.84
2022-11-29T02:01:49.179Z,99384.19
2022-11-29T02:04:17.616Z,99383.41
2022-11-29T02:06:45.409Z,99388.63
2022-11-29T02:09:21.071Z,99383.50
2022-11-29T02:11:57.281Z,99384.44
2022-11-29T02:14:37.008Z,99384.44
2022-11-29T02:17:15.920Z,99376.66
2022-11-29T02:20:00.737Z,99375.00
2022-11-29T02:22:41.584Z,99374.13
2022-11-29T02:25:17.042Z,99379.31
2022-11-29T02:28:03.357Z,99377.59
2022-11-29T02:31:02.662Z,99380.19
2022-11-29T02:34:17.728Z,99387.97
2022-11-29T02:36:58.764Z,99394.88
2022-11-29T02:39:43.522Z,99386.28
2022-11-29T02:42:19.569Z,99388.88
2022-11-29T02:44:52.604Z,99386.28
2022-11-29T02:47:36.717Z,99383.69
2022-11-29T02:50:17.433Z,99378.56
2022-11-29T02:53:35.078Z,99388.03
2022-11-29T02:56:29.897Z,99394.91
2022-11-29T02:59:18.355Z,99393.22
2022-11-29T03:02:07.223Z,99395.81
2022-11-29T03:04:43.837Z,99395.81
2022-11-29T03:07:25.607Z,99397.53
2022-11-29T03:10:10.784Z,99398.41
2022-11-29T03:12:47.053Z,99401.84
2022-11-29T03:15:28.562Z,99408.78
2022-11-29T03:18:40.516Z,99400.16
2022-11-29T03:21:09.916Z,99402.75
2022-11-29T03:23:39.215Z,99401.00
2022-11-29T03:26:11.284Z,99406.19
2022-11-29T03:29:09.564Z,99401.00
2022-11-29T03:31:45.281Z,99404.47
2022-11-29T03:34:18.247Z,99406.19
2022-11-29T03:37:15.858Z,99399.31
2022-11-29T03:39:53.033Z,99400.19
2022-11-29T03:42:26.366Z,99403.66
2022-11-29T03:45:05.885Z,99407.06
2022-11-29T03:47:41.122Z,99414.88
2022-11-29T03:50:14.700Z,99409.72
2022-11-29T03:52:55.945Z,99414.91
2022-11-29T03:55:48.079Z,99413.16
2022-11-29T03:58:44.640Z,99424.41
2022-11-29T04:01:33.570Z,99413.16
2022-11-29T04:04:38.869Z,99420.97
2022-11-29T04:07:38.675Z,99420.09
2022-11-29T04:10:27.253Z,99425.28
2022-11-29T04:13:26.510Z,99428.75
2022-11-29T04:16:11.285Z,99433.94
2022-11-29T04:19:15.336Z,99428.69
2022-11-29T04:22:04.618Z,99425.25
2022-11-29T04:24:55.808Z,99423.56
2022-11-29T04:27:53.172Z,99425.28
2022-11-29T04:30:23.551Z,99420.13
2022-11-29T04:33:23.103Z,99433.97
2022-11-29T04:36:14.875Z,99427.94
2022-11-29T04:38:47.988Z,99434.84
2022-11-29T04:41:31.872Z,99435.69
2022-11-29T04:44:17.647Z,99441.75
2022-11-29T04:46:44.658Z,99438.31
2022-11-29T04:49:31.685Z,99440.88
2022-11-29T04:52:36.096Z,99442.66
2022-11-29T04:55:14.720Z,99447.84
2022-11-29T04:58:16.558Z,99447.84
2022-11-29T05:01:09.292Z,99457.31
2022-11-29T05:03:46.871Z,99471.16
2022-11-29T05:06:16.524Z,99461.66
2022-11-29T05:09:21.255Z,99462.56
2022-11-29T05:12:26.473Z,99466.00
2022-11-29T05:15:26.979Z,99466.88
2022-11-29T05:18:21.433Z,99470.28
2022-11-29T05:21:04.997Z,99474.59
2022-11-29T05:23:53.188Z,99474.66
2022-11-29T05:26:30.748Z,99471.19
2022-11-29T05:29:11.098Z,99477.31
2022-11-29T05:32:05.791Z,99482.47
2022-11-29T05:34:56.941Z,99484.19
2022-11-29T05:37:42.123Z,99490.28
2022-11-29T05:40:44.653Z,99489.41
2022-11-29T05:43:36.716Z,99492.00
2022-11-29T05:46:24.861Z,99493.72
2022-11-29T05:49:01.181Z,99500.59
2022-11-29T05:51:40.285Z,99505.78
2022-11-29T05:54:49.925Z,99519.63
2022-11-29T05:57:36.970Z,99510.97
2022-11-29T06:00:06.087Z,99518.75
2022-11-29T06:02:40.068Z,99523.94
2022-11-29T06:05:19.485Z,99525.63
2022-11-29T06:08:19.483Z,99531.72
2022-11-29T06:11:17.629Z,99529.97
2022-11-29T06:14:17.426Z,99536.03
2022-11-29T06:16:57.057Z,99535.16
2022-11-29T06:19:46.045Z,99532.53
2022-11-29T06:22:50.628Z,99534.25
2022-11-29T06:25:47.188Z,99537.78
2022-11-29T06:28:20.074Z,99534.28
2022-11-29T06:31:08.631Z,99536.88
2022-11-29T06:33:54.703Z,99537.78
2022-11-29T06:36:35.484Z,99538.63
2022-11-29T06:39:02.849Z,99539.53
2022-11-29T06:41:29.935Z,99542.09
2022-11-29T06:43:57.346Z,99547.31
2022-11-29T06:46:34.006Z,99548.22
2022-11-29T06:49:09.732Z,99558.56
2022-11-29T06:51:42.634Z,99556.88
2022-11-29T06:54:32.313Z,99555.13
2022-11-29T06:57:11.199Z,99560.28
2022-11-29T07:00:25.702Z,99562.06
2022-11-29T07:03:21.271Z,99553.44
2022-11-29T07:05:48.620Z,99549.13
2022-11-29T07:08:19.009Z,99559.50
2022-11-29T07:10:50.165Z,99553.47
2022-11-29T07:13:18.160Z,99547.41
2022-11-29T07:15:59.156Z,99556.06
2022-11-29T07:18:39.439Z,99551.72
2022-11-29T07:21:48.788Z,99546.56
2022-11-29T07:24:38.922Z,99565.56
2022-11-29T07:27:32.296Z,99557.78
2022-11-29T07:30:20.040Z,99566.47
2022-11-29T07:33:32.278Z,99558.75
2022-11-29T07:36:22.401Z,99562.19
2022-11-29T07:39:15.560Z,99565.66
2022-11-29T07:41:51.381Z,99557.91
2022-11-29T07:44:27.460Z,99563.97
2022-11-29T07:46:54.325Z,99560.56
2022-11-29T07:49:21.389Z,99567.47
2022-11-29T07:51:48.355Z,99565.78
2022-11-29T07:54:17.881Z,99565.81
2022-11-29T07:56:44.681Z,99571.88
2022-11-29T07:59:12.987Z,99574.50
2022-11-29T08:01:40.121Z,99571.88
2022-11-29T08:04:08.205Z,99565.00
2022-11-29T08:06:35.999Z,99565.84
2022-11-29T08:09:04.599Z,99565.00
2022-11-29T08:11:31.376Z,99566.75
2022-11-29T08:14:03.785Z,99565.91
2022-11-29T08:16:30.804Z,99563.31
2022-11-29T08:18:58.233Z,99566.78
2022-11-29T08:21:24.945Z,99571.97
2022-11-29T08:23:52.637Z,99565.91
2022-11-29T08:26:20.617Z,99571.16
2022-11-29T08:28:52.380Z,99568.59
2022-11-29T08:31:20.719Z,99578.13
2022-11-29T08:33:48.016Z,99578.16
2022-11-29T08:36:17.812Z,99567.75
2022-11-29T08:38:45.190Z,99572.97
2022-11-29T08:41:14.284Z,99569.56
2022-11-29T08:43:42.180Z,99572.13
2022-11-29T08:46:13.676Z,99568.69
2022-11-29T08:48:43.861Z,99578.22
2022-11-29T08:51:10.710Z,99580.81
2022-11-29T08:53:43.608Z,99579.06
2022-11-29T08:59:06.664Z,99579.00
2022-11-29T09:01:33.492Z,99587.63
2022-11-29T09:04:02.493Z,99585.88
2022-11-29T09:06:45.596Z,99583.28
2022-11-29T09:09:12.625Z,99577.28
2022-11-29T09:11:39.364Z,99578.19
2022-11-29T09:14:08.368Z,99575.59
2022-11-29T09:16:38.408Z,99570.41
2022-11-29T09:19:06.251Z,99574.78
2022-11-29T09:21:36.619Z,99569.59
2022-11-29T09:24:06.431Z,99573.94
2022-11-29T09:26:36.068Z,99568.75
2022-11-29T09:29:04.973Z,99569.66
2022-11-29T09:31:32.826Z,99568.81
2022-11-29T09:34:00.590Z,99568.84
2022-11-29T09:36:29.920Z,99567.97
2022-11-29T09:38:58.315Z,99565.38
2022-11-29T09:41:59.707Z,99575.75
2022-11-29T09:44:40.993Z,99568.84
2022-11-29T09:47:10.472Z,99562.78
2022-11-29T09:49:37.530Z,99564.50
2022-11-29T09:52:32.216Z,99559.31
2022-11-29T09:55:25.799Z,99572.34
2022-11-29T09:57:55.204Z,99560.22
2022-11-29T10:00:22.454Z,99564.56
2022-11-29T10:03:18.377Z,99560.25
2022-11-29T10:05:50.016Z,99574.13
2022-11-29T10:08:29.379Z,99576.72
2022-11-29T10:11:16.467Z,99573.25
2022-11-29T10:13:49.273Z,99575.84
2022-11-29T10:16:24.976Z,99571.50
2022-11-29T10:19:01.816Z,99571.50
2022-11-29T10:21:35.893Z,99574.97
2022-11-29T10:24:13.491Z,99574.97
2022-11-29T10:26:41.470Z,99568.06
2022-11-29T10:29:14.628Z,99568.03
2022-11-29T10:31:44.637Z,99566.34
2022-11-29T10:34:17.604Z,99569.81
2022-11-29T10:36:55.177Z,99568.97
2022-11-29T10:39:35.773Z,99562.91
2022-11-29T10:42:04.204Z,99568.94
2022-11-29T10:44:33.302Z,99563.75
2022-11-29T10:47:09.239Z,99565.50
2022-11-29T10:49:38.053Z,99566.34
2022-11-29T10:52:05.821Z,99571.53
2022-11-29T10:54:38.425Z,99572.38
2022-11-29T10:57:14.672Z,99572.38
2022-11-29T10:59:41.489Z,99576.72
2022-11-29T11:02:18.832Z,99567.19
2022-11-29T11:04:48.007Z,99573.22
2022-11-29T11:07:41.821Z,99570.66
2022-11-29T11:10:26.697Z,99576.72
2022-11-29T11:13:20.524Z,99570.69
2022-11-29T11:15:47.505Z,99573.28
2022-11-29T11:18:25.802Z,99581.91
2022-11-29T11:21:02.132Z,99573.25
2022-11-29T11:23:32.659Z,99574.97
2022-11-29T11:26:03.550Z,99581.03
2022-11-29T11:28:44.111Z,99581.00
2022-11-29T11:31:12.854Z,99575.81
2022-11-29T11:33:44.169Z,99568.00
2022-11-29T11:36:15.489Z,99576.66
2022-11-29T11:38:57.789Z,99567.16
2022-11-29T11:41:53.979Z,99581.00
2022-11-29T11:44:53.802Z,99568.88
2022-11-29T11:47:27.764Z,99577.53
2022-11-29T11:50:08.056Z,99570.63
2022-11-29T11:52:53.921Z,99576.72
2022-11-29T11:55:20.908Z,99588.81
2022-11-29T11:58:03.340Z,99579.25
2022-11-29T12:01:10.135Z,99581.84
2022-11-29T12:04:06.148Z,99576.66
2022-11-29T12:06:52.609Z,99561.94
2022-11-29T12:09:30.753Z,99576.59
2022-11-29T12:12:21.847Z,99565.38
2022-11-29T12:14:56.212Z,99571.44
2022-11-29T12:17:53.212Z,99566.28
2022-11-29T12:20:30.455Z,99574.91
2022-11-29T12:23:24.104Z,99571.44
2022-11-29T12:25:57.237Z,99580.94
2022-11-29T12:28:32.345Z,99580.94
2022-11-29T12:31:04.354Z,99580.09
2022-11-29T12:33:48.272Z,99587.03
2022-11-29T12:36:39.581Z,99582.72
2022-11-29T12:39:23.176Z,99581.81
2022-11-29T12:42:00.087Z,99579.22
2022-11-29T12:44:56.696Z,99577.50
2022-11-29T12:48:03.057Z,99586.97
2022-11-29T12:50:40.389Z,99582.66
2022-11-29T12:54:01.787Z,99591.28
2022-11-29T12:56:28.819Z,99575.69
2022-11-29T12:59:42.866Z,99585.22
2022-11-29T13:02:40.687Z,99580.88
2022-11-29T13:05:26.045Z,99580.00
2022-11-29T13:08:14.816Z,99579.97
2022-11-29T13:11:12.514Z,99583.44
2022-11-29T13:13:46.657Z,99586.94
2022-11-29T13:16:46.169Z,99584.31
2022-11-29T13:19:32.705Z,99591.25
2022-11-29T13:22:16.956Z,99588.66
2022-11-29T13:24:47.060Z,99584.31
2022-11-29T13:27:18.940Z,99596.44
2022-11-29T13:29:47.468Z,99599.88
2022-11-29T13:32:41.754Z,99601.63
2022-11-29T13:35:22.199Z,99596.44
2022-11-29T13:37:55.452Z,99606.84
2022-11-29T13:40:25.717Z,99604.25
2022-11-29T13:43:14.569Z,99612.91
2022-11-29T13:45:49.367Z,99614.59
2022-11-29T13:48:56.637Z,99612.03
2022-11-29T13:51:26.004Z,99605.94
2022-11-29T13:53:54.204Z,99605.91
2022-11-29T13:56:29.837Z,99610.22
2022-11-29T13:58:58.879Z,99600.72
2022-11-29T14:01:26.893Z,99605.94
2022-11-29T14:04:03.533Z,99598.97
2022-11-29T14:06:33.454Z,99602.47
2022-11-29T14:09:26.247Z,99608.53
2022-11-29T14:11:59.369Z,99610.22
2022-11-29T14:14:48.348Z,99613.66
2022-11-29T14:17:34.280Z,99605.88
2022-11-29T14:20:39.211Z,99604.13
2022-11-29T14:23:06.476Z,99600.66
2022-11-29T14:25:52.975Z,99608.44
2022-11-29T14:28:22.931Z,99603.22
2022-11-29T14:30:49.929Z,99601.50
2022-11-29T14:33:35.755Z,99595.44
2022-11-29T14:36:21.536Z,99592.84
2022-11-29T14:38:54.753Z,99585.97
2022-11-29T14:41:24.204Z,99593.75
2022-11-29T14:44:15.049Z,99598.03
2022-11-29T14:46:42.004Z,99586.81
2022-11-29T14:49:21.288Z,99594.59
2022-11-29T14:52:06.578Z,99593.75
2022-11-29T14:54:34.588Z,99603.25
2022-11-29T14:57:39.526Z,99615.34
2022-11-29T15:00:13.938Z,99609.31
2022-11-29T15:03:06.363Z,99612.72
2022-11-29T15:05:38.104Z,99605.81
2022-11-29T15:08:16.865Z,99613.59
2022-11-29T15:10:48.110Z,99610.13
2022-11-29T15:13:23.326Z,99609.25
2022-11-29T15:16:04.283Z,99610.97
2022-11-29T15:18:52.606Z,99617.88
2022-11-29T15:21:39.450Z,99612.69
2022-11-29T15:24:14.620Z,99615.31
2022-11-29T15:26:59.227Z,99612.72
2022-11-29T15:29:27.742Z,99616.19
2022-11-29T15:31:57.347Z,99616.19
2022-11-29T15:34:32.974Z,99614.44
2022-11-29T15:37:00.778Z,99622.25
2022-11-29T15:39:37.088Z,99624.81
2022-11-29T15:42:14.144Z,99624.78
2022-11-29T15:44:48.931Z,99625.69
2022-11-29T15:47:23.401Z,99630.88
2022-11-29T15:49:51.953Z,99637.78
2022-11-29T15:52:31.692Z,99635.19
2022-11-29T15:55:05.552Z,99640.38
2022-11-29T15:57:38.646Z,99631.75
2022-11-29T16:00:15.766Z,99632.63
2022-11-29T16:03:02.628Z,99636.97
2022-11-29T16:05:33.886Z,99639.56
2022-11-29T16:08:04.733Z,99647.38
2022-11-29T16:10:43.694Z,99643.03
2022-11-29T16:13:31.180Z,99649.94
2022-11-29T16:16:07.665Z,99641.31
2022-11-29T16:18:35.240Z,99649.97
2022-11-29T16:21:05.737Z,99648.25
2022-11-29T16:23:51.189Z,99649.06
2022-11-29T16:26:32.648Z,99649.06
2022-11-29T16:29:00.423Z,99656.84
2022-11-29T16:31:38.230Z,99652.53
2022-11-29T16:34:21.477Z,99648.16
2022-11-29T16:37:14.553Z,99657.69
2022-11-29T16:39:46.365Z,99660.25
2022-11-29T16:42:13.090Z,99661.97
2022-11-29T16:44:40.246Z,99669.78
2022-11-29T16:47:24.591Z,99674.09
2022-11-29T16:50:07.460Z,99673.22
2022-11-29T16:52:34.465Z,99673.19
2022-11-29T16:55:01.587Z,99678.44
2022-11-29T16:57:29.350Z,99685.38
2022-11-29T16:59:56.488Z,99679.31
2022-11-29T17:02:23.634Z,99693.16
2022-11-29T17:04:51.461Z,99684.47
2022-11-29T17:07:25.325Z,99679.25
2022-11-29T17:09:53.024Z,99684.47
2022-11-29T17:12:19.817Z,99674.13
2022-11-29T17:14:47.183Z,99684.50
2022-11-29T17:17:15.460Z,99680.19
2022-11-29T17:19:42.548Z,99678.44
2022-11-29T17:22:09.413Z,99674.13
2022-11-29T17:24:37.241Z,99671.50
2022-11-29T17:27:04.825Z,99680.13
2022-11-29T17:29:32.178Z,99674.06
2022-11-29T17:31:59.117Z,99667.13
2022-11-29T17:34:26.236Z,99669.75
2022-11-29T17:36:53.129Z,99673.19
2022-11-29T17:39:21.661Z,99666.28
2022-11-29T17:41:48.821Z,99674.09
2022-11-29T17:44:15.866Z,99672.34
2022-11-29T17:46:42.657Z,99672.34
2022-11-29T17:49:10.676Z,99667.16
2022-11-29T17:51:54.266Z,99668.88
2022-11-29T17:54:22.288Z,99670.59
2022-11-29T17:56:49.837Z,99669.75
2022-11-29T17:59:16.897Z,99678.38
2022-11-29T18:01:43.873Z,99679.25
2022-11-29T18:04:11.038Z,99674.88
2022-11-29T18:06:40.563Z,99687.00
2022-11-29T18:09:09.480Z,99681.84
2022-11-29T18:11:46.918Z,99687.88
2022-11-29T18:14:16.505Z,99699.06
2022-11-29T18:16:45.655Z,99686.97
2022-11-29T18:19:15.684Z,99682.63
2022-11-29T18:21:42.942Z,99696.41
2022-11-29T18:24:10.527Z,99694.72
2022-11-29T18:26:39.491Z,99688.63
2022-11-29T18:29:07.619Z,99683.47
2022-11-29T18:31:37.160Z,99685.19
2022-11-29T18:34:07.171Z,99692.13
2022-11-29T18:36:39.357Z,99691.28
2022-11-29T18:39:09.504Z,99690.44
2022-11-29T18:41:37.008Z,99690.44
2022-11-29T18:44:06.059Z,99694.72
2022-11-29T18:46:35.800Z,99696.47
2022-11-29T18:49:05.933Z,99699.06
2022-11-29T18:51:34.287Z,99700.75
2022-11-29T18:54:02.069Z,99702.53
2022-11-29T18:56:30.861Z,99712.06
2022-11-29T18:59:00.483Z,99707.72
2022-11-29T19:01:29.815Z,99713.81
2022-11-29T19:04:01.132Z,99713.78
2022-11-29T19:06:35.608Z,99707.72
2022-11-29T19:09:11.488Z,99713.78
2022-11-29T19:11:38.854Z,99711.19
2022-11-29T19:14:11.308Z,99709.44
2022-11-29T19:16:40.650Z,99712.03
2022-11-29T19:19:07.994Z,99718.97
2022-11-29T19:21:34.812Z,99713.78
2022-11-29T19:24:05.538Z,99714.63
2022-11-29T19:26:33.576Z,99716.34
2022-11-29T19:29:01.793Z,99721.53
2022-11-29T19:31:28.917Z,99713.75
2022-11-29T19:33:57.228Z,99711.13
2022-11-29T19:36:29.578Z,99718.06
2022-11-29T19:38:57.691Z,99712.84
2022-11-29T19:41:27.707Z,99711.06
2022-11-29T19:43:59.213Z,99712.78
2022-11-29T19:46:29.120Z,99711.00
2022-11-29T19:48:57.567Z,99719.72
2022-11-29T19:51:25.799Z,99718.88
2022-11-29T19:53:59.180Z,99728.31
2022-11-29T19:56:26.872Z,99725.72
2022-11-29T19:58:54.360Z,99718.00
2022-11-29T20:01:28.057Z,99724.94
2022-11-29T20:03:55.908Z,99721.53
2022-11-29T20:06:22.748Z,99718.06
2022-11-29T20:08:49.833Z,99721.56
2022-11-29T20:11:22.410Z,99719.81
2022-11-29T20:14:08.293Z,99721.56
2022-11-29T20:16:37.948Z,99725.00
2022-11-29T20:19:10.192Z,99722.41
2022-11-29T20:21:42.236Z,99725.00
2022-11-29T20:24:09.893Z,99731.84
2022-11-29T20:26:38.641Z,99732.69
2022-11-29T20:29:06.509Z,99728.31
2022-11-29T20:31:34.625Z,99739.59
2022-11-29T20:34:02.152Z,99727.50
2022-11-29T20:37:11.925Z,99718.84
2022-11-29T20:40:00.075Z,99725.81
2022-11-29T20:42:29.663Z,99725.78
2022-11-29T20:44:59.677Z,99730.09
2022-11-29T20:47:27.655Z,99729.22
2022-11-29T20:49:54.884Z,99721.41
2022-11-29T20:52:38.870Z,99727.50
2022-11-29T20:55:06.488Z,99730.16
2022-11-29T20:57:33.214Z,99724.06
2022-11-29T21:00:00.370Z,99726.72
2022-11-29T21:02:27.103Z,99727.53
2022-11-29T21:04:54.222Z,99723.25
2022-11-29T21:07:21.066Z,99720.66
2022-11-29T21:09:48.162Z,99725.84
2022-11-29T21:12:15.610Z,99721.53
2022-11-29T21:14:44.308Z,99715.47
2022-11-29T21:17:11.623Z,99724.16
2022-11-29T21:19:40.055Z,99727.59
2022-11-29T21:22:16.169Z,99729.31
2022-11-29T21:24:51.233Z,99727.53
2022-11-29T21:27:32.402Z,99737.03
2022-11-29T21:30:00.892Z,99724.94
2022-11-29T21:32:27.933Z,99729.25
2022-11-29T21:34:55.301Z,99727.50
2022-11-29T21:37:26.333Z,99730.09
2022-11-29T21:39:53.936Z,99724.03
2022-11-29T21:42:20.781Z,99715.34
2022-11-29T21:44:48.155Z,99715.34
2022-11-29T21:47:15.325Z,99716.25
2022-11-29T21:49:42.427Z,99715.41
2022-11-29T21:52:09.231Z,99718.00
2022-11-29T21:54:36.300Z,99711.97
2022-11-29T21:57:03.126Z,99714.59
2022-11-29T21:59:30.229Z,99717.16
2022-11-29T22:01:57.156Z,99716.25
2022-11-29T22:04:25.336Z,99710.19
2022-11-29T22:06:52.165Z,99712.78
2022-11-29T22:09:19.230Z,99713.56
2022-11-29T22:11:46.085Z,99720.47
2022-11-29T22:14:15.320Z,99715.25
2022-11-29T22:16:45.152Z,99706.63
2022-11-29T22:19:14.181Z,99712.66
2022-11-29T22:21:42.712Z,99714.34
2022-11-29T22:24:11.127Z,99716.06
2022-11-29T22:26:38.685Z,99715.19
2022-11-29T22:29:06.513Z,99704.81
2022-11-29T22:31:35.357Z,99727.22
2022-11-29T22:34:02.625Z,99709.94
2022-11-29T22:36:29.351Z,99710.75
2022-11-29T22:38:56.401Z,99709.94
2022-11-29T22:41:23.209Z,99707.34
2022-11-29T22:43:50.437Z,99722.91
2022-11-29T22:46:22.656Z,99705.59
2022-11-29T22:48:52.826Z,99713.41
2022-11-29T22:51:39.479Z,99706.50
2022-11-29T22:54:09.277Z,99702.19
2022-11-29T22:56:39.666Z,99703.94
2022-11-29T22:59:06.810Z,99700.44
2022-11-29T23:01:35.653Z,99700.44
2022-11-29T23:04:06.197Z,99698.72
2022-11-29T23:06:35.844Z,99704.75
2022-11-29T23:09:15.207Z,99697.00
2022-11-29T23:11:44.144Z,99707.41
2022-11-29T23:14:12.073Z,99706.53
2022-11-29T23:16:38.937Z,99702.22
2022-11-29T23:19:06.190Z,99697.06
2022-11-29T23:21:35.988Z,99700.53
2022-11-29T23:24:03.214Z,99697.88
2022-11-29T23:26:39.021Z,99704.78
2022-11-29T23:29:08.737Z,99699.59
2022-11-29T23:31:35.606Z,99695.31
2022-11-29T23:34:03.162Z,99700.50
2022-11-29T23:36:30.506Z,99703.09
2022-11-29T23:38:57.644Z,99703.97
2022-11-29T23:41:24.504Z,99707.44
2022-11-29T23:43:51.700Z,99702.22
2022-11-29T23:46:23.628Z,99703.03
2022-11-29T23:48:51.024Z,99703.94
2022-11-29T23:51:19.183Z,99711.72
2022-11-29T23:53:50.433Z,99703.94
2022-11-29T23:56:18.188Z,99710.00
2022-11-29T23:58:45.339Z,99695.25
